N44AR KORD-KDFW
Flight info
| Callsign | N44AR |
|---|---|
| Flight time | 1h 47m |
| Altitude | 47000 |
| Route | ACITO ADELL ARLYN IDQUD WESCO DILME RRNET BRDJE5 |
| Aircraft | C750/M-SBDE3FGHRWXY/S |
Departure
| Time | 2026-05-07 22:03 |
|---|---|
| Airport | Chicago O'Hare International Airport (KORD) |
Arrival
| Time | 2026-05-07 23:50 |
|---|---|
| Airport | Dallas Fort Worth International Airport (KDFW) |
| Time | Latitude | Longitude | Altitude | Speed | Heading |
|---|---|---|---|---|---|
| 2026-05-07 21:11 | 41.99156 | -87.89113 | 667 ft | 0 kts | 188° |
| 2026-05-07 21:57 | 41.99152 | -87.89107 | 667 ft | 2 kts | 126° |
| 2026-05-07 21:57 | 41.99129 | -87.89059 | 667 ft | 0 kts | 149° |
| 2026-05-07 22:01 | 41.99105 | -87.89043 | 667 ft | 9 kts | 156° |
| 2026-05-07 22:02 | 41.99024 | -87.89039 | 667 ft | 16 kts | 181° |
| 2026-05-07 22:02 | 41.98891 | -87.89043 | 669 ft | 19 kts | 181° |
| 2026-05-07 22:02 | 41.98855 | -87.89213 | 668 ft | 47 kts | 281° |
| 2026-05-07 22:02 | 41.98835 | -87.90125 | 673 ft | 139 kts | 270° |
| 2026-05-07 22:03 | 41.98816 | -87.91581 | 859 ft | 173 kts | 268° |
| 2026-05-07 22:03 | 41.98710 | -87.93289 | 1390 ft | 187 kts | 266° |
| 2026-05-07 22:03 | 41.98501 | -87.94914 | 2418 ft | 173 kts | 249° |
| 2026-05-07 22:03 | 41.97713 | -87.96172 | 3044 ft | 189 kts | 219° |
| 2026-05-07 22:04 | 41.96405 | -87.96939 | 3454 ft | 221 kts | 197° |
| 2026-05-07 22:04 | 41.94836 | -87.97461 | 3997 ft | 243 kts | 196° |
| 2026-05-07 22:04 | 41.93131 | -87.98077 | 4595 ft | 262 kts | 199° |
| 2026-05-07 22:04 | 41.91396 | -87.98764 | 5705 ft | 257 kts | 199° |
| 2026-05-07 22:05 | 41.89698 | -87.99439 | 6781 ft | 255 kts | 199° |
| 2026-05-07 22:05 | 41.87982 | -88.00097 | 7735 ft | 260 kts | 200° |
| 2026-05-07 22:05 | 41.86234 | -88.00773 | 8757 ft | 266 kts | 201° |
| 2026-05-07 22:05 | 41.84448 | -88.01452 | 9786 ft | 268 kts | 201° |
| 2026-05-07 22:06 | 41.82620 | -88.02155 | 10502 ft | 281 kts | 201° |
| 2026-05-07 22:06 | 41.80675 | -88.02908 | 10688 ft | 307 kts | 201° |
| 2026-05-07 22:06 | 41.78520 | -88.03718 | 10768 ft | 335 kts | 200° |
| 2026-05-07 22:06 | 41.76251 | -88.04561 | 11573 ft | 337 kts | 200° |
| 2026-05-07 22:07 | 41.73981 | -88.05413 | 12273 ft | 342 kts | 201° |
| 2026-05-07 22:07 | 41.71673 | -88.06306 | 12900 ft | 348 kts | 201° |
| 2026-05-07 22:07 | 41.69334 | -88.07208 | 13558 ft | 352 kts | 201° |
| 2026-05-07 22:07 | 41.66961 | -88.08106 | 14219 ft | 355 kts | 201° |
| 2026-05-07 22:08 | 41.64568 | -88.09003 | 14844 ft | 359 kts | 202° |
| 2026-05-07 22:08 | 41.62181 | -88.09907 | 15463 ft | 362 kts | 202° |
| 2026-05-07 22:08 | 41.59744 | -88.10837 | 16056 ft | 367 kts | 202° |
| 2026-05-07 22:08 | 41.57277 | -88.11773 | 16692 ft | 370 kts | 202° |
| 2026-05-07 22:09 | 41.54779 | -88.12713 | 17314 ft | 374 kts | 202° |
| 2026-05-07 22:09 | 41.52256 | -88.13664 | 17936 ft | 378 kts | 203° |
| 2026-05-07 22:09 | 41.49713 | -88.14626 | 18539 ft | 382 kts | 203° |
| 2026-05-07 22:09 | 41.47136 | -88.15599 | 19157 ft | 386 kts | 203° |
| 2026-05-07 22:10 | 41.44711 | -88.16510 | 19715 ft | 390 kts | 203° |
| 2026-05-07 22:10 | 41.42089 | -88.17497 | 20310 ft | 394 kts | 204° |
| 2026-05-07 22:10 | 41.39449 | -88.18512 | 20897 ft | 395 kts | 205° |
| 2026-05-07 22:10 | 41.36836 | -88.19705 | 21465 ft | 397 kts | 207° |
| 2026-05-07 22:11 | 41.34221 | -88.20932 | 22043 ft | 401 kts | 207° |
| 2026-05-07 22:11 | 41.31556 | -88.22122 | 22593 ft | 406 kts | 206° |
| 2026-05-07 22:11 | 41.28853 | -88.23282 | 23123 ft | 410 kts | 206° |
| 2026-05-07 22:11 | 41.26167 | -88.24449 | 23733 ft | 412 kts | 207° |
| 2026-05-07 22:12 | 41.23441 | -88.25670 | 24256 ft | 415 kts | 207° |
| 2026-05-07 22:12 | 41.20704 | -88.26927 | 24780 ft | 418 kts | 208° |
| 2026-05-07 22:12 | 41.17952 | -88.28191 | 25390 ft | 419 kts | 208° |
| 2026-05-07 22:12 | 41.15184 | -88.29440 | 25934 ft | 422 kts | 208° |
| 2026-05-07 22:13 | 41.12387 | -88.30688 | 26494 ft | 424 kts | 208° |
| 2026-05-07 22:13 | 41.09594 | -88.31940 | 27077 ft | 425 kts | 208° |
| 2026-05-07 22:13 | 41.06782 | -88.33214 | 27612 ft | 427 kts | 209° |
| 2026-05-07 22:13 | 41.03971 | -88.34491 | 28166 ft | 429 kts | 209° |
| 2026-05-07 22:14 | 41.01132 | -88.35769 | 28710 ft | 431 kts | 209° |
| 2026-05-07 22:14 | 40.98287 | -88.37042 | 29208 ft | 433 kts | 209° |
| 2026-05-07 22:14 | 40.95465 | -88.38305 | 29692 ft | 435 kts | 209° |
| 2026-05-07 22:14 | 40.92583 | -88.39602 | 30150 ft | 437 kts | 209° |
| 2026-05-07 22:15 | 40.89696 | -88.40899 | 30671 ft | 438 kts | 210° |
| 2026-05-07 22:15 | 40.86803 | -88.42197 | 31151 ft | 440 kts | 210° |
| 2026-05-07 22:15 | 40.83909 | -88.43488 | 31810 ft | 436 kts | 209° |
| 2026-05-07 22:15 | 40.81033 | -88.44769 | 32430 ft | 434 kts | 210° |
| 2026-05-07 22:16 | 40.78171 | -88.46048 | 33007 ft | 433 kts | 210° |
| 2026-05-07 22:16 | 40.75315 | -88.47328 | 33615 ft | 431 kts | 210° |
| 2026-05-07 22:16 | 40.72518 | -88.48577 | 34210 ft | 429 kts | 210° |
| 2026-05-07 22:16 | 40.69701 | -88.49831 | 34793 ft | 427 kts | 210° |
| 2026-05-07 22:17 | 40.66883 | -88.51084 | 35312 ft | 427 kts | 210° |
| 2026-05-07 22:17 | 40.64080 | -88.52334 | 35824 ft | 426 kts | 210° |
| 2026-05-07 22:17 | 40.61265 | -88.53585 | 36365 ft | 425 kts | 210° |
| 2026-05-07 22:17 | 40.58461 | -88.54829 | 36817 ft | 426 kts | 210° |
| 2026-05-07 22:18 | 40.55650 | -88.56075 | 37396 ft | 423 kts | 210° |
| 2026-05-07 22:18 | 40.50102 | -88.58525 | 38560 ft | 418 kts | 210° |
| 2026-05-07 22:18 | 40.47349 | -88.59752 | 39014 ft | 418 kts | 210° |
| 2026-05-07 22:19 | 40.44585 | -88.60977 | 39428 ft | 419 kts | 210° |
| 2026-05-07 22:19 | 40.41811 | -88.62200 | 39820 ft | 421 kts | 210° |
| 2026-05-07 22:19 | 40.39033 | -88.63422 | 40235 ft | 422 kts | 209° |
| 2026-05-07 22:19 | 40.36250 | -88.64649 | 40622 ft | 423 kts | 209° |
| 2026-05-07 22:20 | 40.33527 | -88.65938 | 40958 ft | 418 kts | 213° |
| 2026-05-07 22:20 | 40.30942 | -88.67624 | 41312 ft | 411 kts | 219° |
| 2026-05-07 22:20 | 40.28573 | -88.69652 | 41676 ft | 404 kts | 225° |
| 2026-05-07 22:20 | 40.26324 | -88.71882 | 42015 ft | 405 kts | 225° |
| 2026-05-07 22:21 | 40.24067 | -88.74105 | 42330 ft | 407 kts | 225° |
| 2026-05-07 22:21 | 40.21775 | -88.76295 | 42617 ft | 409 kts | 224° |
| 2026-05-07 22:21 | 40.19460 | -88.78491 | 42904 ft | 411 kts | 224° |
| 2026-05-07 22:21 | 40.17165 | -88.80702 | 43223 ft | 411 kts | 224° |
| 2026-05-07 22:22 | 40.14867 | -88.82946 | 43512 ft | 412 kts | 224° |
| 2026-05-07 22:22 | 40.12561 | -88.85188 | 43778 ft | 414 kts | 224° |
| 2026-05-07 22:22 | 40.10235 | -88.87420 | 44046 ft | 415 kts | 224° |
| 2026-05-07 22:22 | 40.07902 | -88.89651 | 44333 ft | 416 kts | 224° |
| 2026-05-07 22:23 | 40.05597 | -88.91869 | 44572 ft | 417 kts | 224° |
| 2026-05-07 22:23 | 40.03265 | -88.94125 | 44823 ft | 418 kts | 224° |
| 2026-05-07 22:23 | 40.00919 | -88.96386 | 45058 ft | 419 kts | 224° |
| 2026-05-07 22:23 | 39.98563 | -88.98642 | 45289 ft | 420 kts | 223° |
| 2026-05-07 22:24 | 39.96214 | -89.00885 | 45611 ft | 417 kts | 224° |
| 2026-05-07 22:24 | 39.93870 | -89.03129 | 45803 ft | 416 kts | 224° |
| 2026-05-07 22:24 | 39.91665 | -89.05541 | 45868 ft | 412 kts | 229° |
| 2026-05-07 22:24 | 39.89573 | -89.08080 | 45982 ft | 411 kts | 229° |
| 2026-05-07 22:25 | 39.87460 | -89.10610 | 46073 ft | 412 kts | 229° |
| 2026-05-07 22:25 | 39.83188 | -89.15606 | 46250 ft | 413 kts | 229° |
| 2026-05-07 22:26 | 39.78940 | -89.20655 | 46421 ft | 414 kts | 229° |
| 2026-05-07 22:26 | 39.74668 | -89.25690 | 46578 ft | 415 kts | 228° |
| 2026-05-07 22:27 | 39.70385 | -89.30730 | 46708 ft | 416 kts | 229° |
| 2026-05-07 22:27 | 39.66093 | -89.35789 | 46854 ft | 416 kts | 228° |
| 2026-05-07 22:28 | 39.61842 | -89.40767 | 46992 ft | 414 kts | 228° |
| 2026-05-07 22:28 | 39.57552 | -89.45809 | 46983 ft | 417 kts | 228° |
| 2026-05-07 22:29 | 39.53221 | -89.50867 | 46990 ft | 421 kts | 228° |
| 2026-05-07 22:29 | 39.48858 | -89.55966 | 46988 ft | 424 kts | 228° |
| 2026-05-07 22:30 | 39.44466 | -89.61090 | 46987 ft | 427 kts | 228° |
| 2026-05-07 22:30 | 39.40031 | -89.66245 | 46998 ft | 429 kts | 228° |
| 2026-05-07 22:31 | 39.35580 | -89.71423 | 47006 ft | 432 kts | 228° |
| 2026-05-07 22:31 | 39.31088 | -89.76628 | 47005 ft | 434 kts | 228° |
| 2026-05-07 22:32 | 39.26575 | -89.81853 | 47007 ft | 437 kts | 228° |
| 2026-05-07 22:32 | 39.22061 | -89.87070 | 47014 ft | 439 kts | 228° |
| 2026-05-07 22:33 | 39.17483 | -89.92347 | 47001 ft | 442 kts | 227° |
| 2026-05-07 22:33 | 39.12887 | -89.97643 | 47013 ft | 444 kts | 227° |
| 2026-05-07 22:34 | 39.08262 | -90.02953 | 47017 ft | 446 kts | 227° |
| 2026-05-07 22:34 | 39.03621 | -90.08279 | 47005 ft | 447 kts | 227° |
| 2026-05-07 22:35 | 38.98997 | -90.13572 | 47008 ft | 448 kts | 227° |
| 2026-05-07 22:35 | 38.94338 | -90.18897 | 47004 ft | 449 kts | 227° |
| 2026-05-07 22:36 | 38.89663 | -90.24232 | 47007 ft | 449 kts | 227° |
| 2026-05-07 22:36 | 38.85742 | -90.28696 | 47003 ft | 450 kts | 227° |
| 2026-05-07 22:37 | 38.81057 | -90.34021 | 47004 ft | 450 kts | 227° |
| 2026-05-07 22:37 | 38.76408 | -90.39299 | 47009 ft | 450 kts | 227° |
| 2026-05-07 22:38 | 38.71719 | -90.44610 | 47009 ft | 450 kts | 227° |
| 2026-05-07 22:38 | 38.67030 | -90.49913 | 47013 ft | 449 kts | 227° |
| 2026-05-07 22:39 | 38.62333 | -90.55215 | 46999 ft | 450 kts | 227° |
| 2026-05-07 22:39 | 38.57639 | -90.60501 | 46998 ft | 450 kts | 227° |
| 2026-05-07 22:40 | 38.52944 | -90.65784 | 47000 ft | 449 kts | 227° |
| 2026-05-07 22:40 | 38.48248 | -90.71053 | 47002 ft | 449 kts | 227° |
| 2026-05-07 22:41 | 38.43578 | -90.76287 | 46999 ft | 449 kts | 227° |
| 2026-05-07 22:41 | 38.38875 | -90.81549 | 47014 ft | 449 kts | 227° |
| 2026-05-07 22:42 | 38.34175 | -90.86793 | 47013 ft | 449 kts | 227° |
| 2026-05-07 22:42 | 38.29467 | -90.92044 | 47023 ft | 449 kts | 227° |
| 2026-05-07 22:43 | 38.24792 | -90.97244 | 47031 ft | 449 kts | 227° |
| 2026-05-07 22:43 | 38.20102 | -91.02449 | 46469 ft | 444 kts | 227° |
| 2026-05-07 22:43 | 38.17761 | -91.05046 | 45343 ft | 448 kts | 227° |
| 2026-05-07 22:44 | 38.15416 | -91.07646 | 44451 ft | 445 kts | 227° |
| 2026-05-07 22:44 | 38.13092 | -91.10211 | 43645 ft | 439 kts | 228° |
| 2026-05-07 22:44 | 38.10790 | -91.12754 | 43054 ft | 435 kts | 228° |
| 2026-05-07 22:44 | 38.08547 | -91.15227 | 43060 ft | 420 kts | 229° |
| 2026-05-07 22:45 | 38.06354 | -91.17651 | 43057 ft | 417 kts | 229° |
| 2026-05-07 22:45 | 38.02045 | -91.22444 | 43044 ft | 413 kts | 230° |
| 2026-05-07 22:46 | 37.97917 | -91.27642 | 43046 ft | 425 kts | 232° |
| 2026-05-07 22:46 | 37.93639 | -91.32984 | 43047 ft | 436 kts | 231° |
| 2026-05-07 22:47 | 37.89270 | -91.38443 | 43049 ft | 444 kts | 232° |
| 2026-05-07 22:47 | 37.84862 | -91.43969 | 43032 ft | 449 kts | 231° |
| 2026-05-07 22:48 | 37.80395 | -91.49517 | 43032 ft | 451 kts | 231° |
| 2026-05-07 22:48 | 37.76237 | -91.54706 | 43034 ft | 450 kts | 231° |
| 2026-05-07 22:49 | 37.71776 | -91.60248 | 43033 ft | 450 kts | 231° |
| 2026-05-07 22:49 | 37.67303 | -91.65790 | 43031 ft | 450 kts | 231° |
| 2026-05-07 22:50 | 37.62833 | -91.71336 | 43027 ft | 451 kts | 231° |
| 2026-05-07 22:50 | 37.58351 | -91.76865 | 43018 ft | 450 kts | 231° |
| 2026-05-07 22:51 | 37.53878 | -91.82392 | 43019 ft | 450 kts | 231° |
| 2026-05-07 22:51 | 37.49423 | -91.87878 | 43019 ft | 450 kts | 231° |
| 2026-05-07 22:52 | 37.44944 | -91.93379 | 43019 ft | 449 kts | 231° |
| 2026-05-07 22:52 | 37.40469 | -91.98882 | 43016 ft | 449 kts | 231° |
| 2026-05-07 22:53 | 37.35998 | -92.04353 | 43023 ft | 449 kts | 231° |
| 2026-05-07 22:53 | 37.31520 | -92.09830 | 43025 ft | 447 kts | 231° |
| 2026-05-07 22:54 | 37.27057 | -92.15285 | 43033 ft | 447 kts | 231° |
| 2026-05-07 22:54 | 37.22588 | -92.20724 | 43034 ft | 447 kts | 231° |
| 2026-05-07 22:55 | 37.18155 | -92.26122 | 43034 ft | 446 kts | 231° |
| 2026-05-07 22:55 | 37.13699 | -92.31535 | 43034 ft | 445 kts | 231° |
| 2026-05-07 22:56 | 37.09244 | -92.36932 | 43035 ft | 444 kts | 231° |
| 2026-05-07 22:56 | 37.04803 | -92.42314 | 43034 ft | 444 kts | 231° |
| 2026-05-07 22:57 | 37.00387 | -92.47645 | 43041 ft | 443 kts | 231° |
| 2026-05-07 22:57 | 36.95947 | -92.53003 | 43042 ft | 443 kts | 231° |
| 2026-05-07 22:58 | 36.91511 | -92.58347 | 43042 ft | 441 kts | 231° |
| 2026-05-07 22:58 | 36.87091 | -92.63656 | 43040 ft | 440 kts | 231° |
| 2026-05-07 22:59 | 36.82672 | -92.68966 | 43052 ft | 441 kts | 231° |
| 2026-05-07 22:59 | 36.78248 | -92.74264 | 43053 ft | 441 kts | 231° |
| 2026-05-07 23:00 | 36.73824 | -92.79550 | 43052 ft | 440 kts | 231° |
| 2026-05-07 23:00 | 36.69436 | -92.84798 | 43051 ft | 439 kts | 231° |
| 2026-05-07 23:01 | 36.65015 | -92.90062 | 43051 ft | 439 kts | 231° |
| 2026-05-07 23:01 | 36.60595 | -92.95327 | 43051 ft | 440 kts | 231° |
| 2026-05-07 23:02 | 36.56175 | -93.00579 | 43052 ft | 440 kts | 231° |
| 2026-05-07 23:02 | 36.51750 | -93.05824 | 43048 ft | 439 kts | 231° |
| 2026-05-07 23:03 | 36.47324 | -93.11070 | 43064 ft | 440 kts | 231° |
| 2026-05-07 23:03 | 36.42835 | -93.16190 | 43056 ft | 442 kts | 229° |
| 2026-05-07 23:04 | 36.38204 | -93.21247 | 43058 ft | 439 kts | 229° |
| 2026-05-07 23:04 | 36.33766 | -93.26149 | 43052 ft | 440 kts | 230° |
| 2026-05-07 23:05 | 36.29183 | -93.31165 | 43048 ft | 439 kts | 229° |
| 2026-05-07 23:05 | 36.24608 | -93.36174 | 43048 ft | 439 kts | 229° |
| 2026-05-07 23:06 | 36.20040 | -93.41179 | 43047 ft | 439 kts | 229° |
| 2026-05-07 23:06 | 36.15485 | -93.46140 | 43048 ft | 439 kts | 229° |
| 2026-05-07 23:07 | 36.10908 | -93.51136 | 43049 ft | 438 kts | 229° |
| 2026-05-07 23:07 | 36.06333 | -93.56111 | 43049 ft | 438 kts | 229° |
| 2026-05-07 23:08 | 36.01754 | -93.61085 | 43049 ft | 438 kts | 229° |
| 2026-05-07 23:08 | 35.97179 | -93.66050 | 43049 ft | 438 kts | 229° |
| 2026-05-07 23:09 | 35.92635 | -93.70967 | 43048 ft | 437 kts | 229° |
| 2026-05-07 23:09 | 35.88064 | -93.75913 | 43051 ft | 437 kts | 229° |
| 2026-05-07 23:10 | 35.83490 | -93.80849 | 43051 ft | 438 kts | 229° |
| 2026-05-07 23:10 | 35.78907 | -93.85787 | 43048 ft | 437 kts | 229° |
| 2026-05-07 23:11 | 35.74331 | -93.90713 | 43049 ft | 437 kts | 229° |
| 2026-05-07 23:11 | 35.69783 | -93.95596 | 43048 ft | 436 kts | 229° |
| 2026-05-07 23:12 | 35.65200 | -94.00516 | 43050 ft | 438 kts | 229° |
| 2026-05-07 23:12 | 35.60618 | -94.05420 | 43050 ft | 436 kts | 229° |
| 2026-05-07 23:13 | 35.56044 | -94.10310 | 43045 ft | 436 kts | 229° |
| 2026-05-07 23:13 | 35.51497 | -94.15169 | 43047 ft | 436 kts | 229° |
| 2026-05-07 23:14 | 35.46919 | -94.20043 | 43049 ft | 435 kts | 229° |
| 2026-05-07 23:14 | 35.42349 | -94.24910 | 43047 ft | 435 kts | 229° |
| 2026-05-07 23:15 | 35.37780 | -94.29764 | 43048 ft | 435 kts | 229° |
| 2026-05-07 23:15 | 35.33247 | -94.34571 | 43050 ft | 432 kts | 229° |
| 2026-05-07 23:16 | 35.28698 | -94.39393 | 43047 ft | 433 kts | 229° |
| 2026-05-07 23:16 | 35.24140 | -94.44215 | 43047 ft | 433 kts | 228° |
| 2026-05-07 23:17 | 35.19584 | -94.49020 | 43049 ft | 432 kts | 228° |
| 2026-05-07 23:17 | 35.15035 | -94.53822 | 43048 ft | 432 kts | 228° |
| 2026-05-07 23:18 | 35.10484 | -94.58609 | 43047 ft | 432 kts | 228° |
| 2026-05-07 23:18 | 35.05960 | -94.63367 | 43047 ft | 432 kts | 228° |
| 2026-05-07 23:19 | 35.01407 | -94.68146 | 43050 ft | 432 kts | 228° |
| 2026-05-07 23:19 | 34.96858 | -94.72910 | 43049 ft | 430 kts | 228° |
| 2026-05-07 23:20 | 34.92311 | -94.77672 | 43050 ft | 431 kts | 228° |
| 2026-05-07 23:20 | 34.87769 | -94.82412 | 43052 ft | 430 kts | 228° |
| 2026-05-07 23:21 | 34.83247 | -94.87136 | 43055 ft | 431 kts | 228° |
| 2026-05-07 23:21 | 34.78684 | -94.91845 | 43048 ft | 430 kts | 227° |
| 2026-05-07 23:22 | 34.78301 | -94.92233 | 43050 ft | 430 kts | 227° |
| 2026-05-07 23:22 | 34.73724 | -94.96904 | 43060 ft | 430 kts | 227° |
| 2026-05-07 23:23 | 34.69166 | -95.01551 | 43054 ft | 430 kts | 227° |
| 2026-05-07 23:23 | 34.64609 | -95.06173 | 42986 ft | 421 kts | 227° |
| 2026-05-07 23:23 | 34.62359 | -95.08473 | 42561 ft | 423 kts | 227° |
| 2026-05-07 23:24 | 34.60114 | -95.10770 | 42139 ft | 421 kts | 227° |
| 2026-05-07 23:24 | 34.57871 | -95.13046 | 41730 ft | 418 kts | 227° |
| 2026-05-07 23:24 | 34.55641 | -95.15297 | 41317 ft | 416 kts | 227° |
| 2026-05-07 23:24 | 34.53428 | -95.17539 | 40908 ft | 413 kts | 227° |
| 2026-05-07 23:25 | 34.51229 | -95.19777 | 40497 ft | 412 kts | 227° |
| 2026-05-07 23:25 | 34.49067 | -95.21976 | 40092 ft | 411 kts | 228° |
| 2026-05-07 23:25 | 34.46873 | -95.24197 | 39681 ft | 410 kts | 227° |
| 2026-05-07 23:25 | 34.44684 | -95.26405 | 39273 ft | 410 kts | 227° |
| 2026-05-07 23:26 | 34.42488 | -95.28614 | 38870 ft | 409 kts | 227° |
| 2026-05-07 23:26 | 34.40306 | -95.30812 | 38459 ft | 408 kts | 228° |
| 2026-05-07 23:26 | 34.38121 | -95.33016 | 38056 ft | 409 kts | 227° |
| 2026-05-07 23:26 | 34.35932 | -95.35224 | 37647 ft | 409 kts | 227° |
| 2026-05-07 23:27 | 34.31572 | -95.39605 | 36838 ft | 410 kts | 227° |
| 2026-05-07 23:27 | 34.29376 | -95.41806 | 36429 ft | 411 kts | 227° |
| 2026-05-07 23:27 | 34.27173 | -95.44019 | 36019 ft | 412 kts | 227° |
| 2026-05-07 23:28 | 34.24963 | -95.46243 | 35604 ft | 416 kts | 227° |
| 2026-05-07 23:28 | 34.22727 | -95.48488 | 35188 ft | 420 kts | 226° |
| 2026-05-07 23:28 | 34.20468 | -95.50747 | 34770 ft | 424 kts | 226° |
| 2026-05-07 23:28 | 34.18178 | -95.53029 | 34346 ft | 428 kts | 226° |
| 2026-05-07 23:29 | 34.15880 | -95.55320 | 33919 ft | 429 kts | 226° |
| 2026-05-07 23:29 | 34.13583 | -95.57614 | 33498 ft | 429 kts | 226° |
| 2026-05-07 23:29 | 34.11278 | -95.59915 | 33093 ft | 431 kts | 226° |
| 2026-05-07 23:29 | 34.08998 | -95.62187 | 32695 ft | 428 kts | 226° |
| 2026-05-07 23:30 | 34.06746 | -95.64412 | 31261 ft | 413 kts | 226° |
| 2026-05-07 23:30 | 34.04509 | -95.66622 | 28221 ft | 424 kts | 226° |
| 2026-05-07 23:30 | 34.02166 | -95.68937 | 25411 ft | 441 kts | 226° |
| 2026-05-07 23:30 | 33.99832 | -95.71245 | 24414 ft | 422 kts | 226° |
| 2026-05-07 23:31 | 33.97589 | -95.73470 | 24427 ft | 419 kts | 226° |
| 2026-05-07 23:31 | 33.95327 | -95.75752 | 24455 ft | 429 kts | 226° |
| 2026-05-07 23:31 | 33.93023 | -95.78080 | 24483 ft | 436 kts | 226° |
| 2026-05-07 23:31 | 33.90689 | -95.80419 | 24504 ft | 438 kts | 226° |
| 2026-05-07 23:32 | 33.88335 | -95.82758 | 24515 ft | 438 kts | 226° |
| 2026-05-07 23:32 | 33.85975 | -95.85104 | 24105 ft | 444 kts | 226° |
| 2026-05-07 23:32 | 33.83672 | -95.87406 | 23593 ft | 439 kts | 226° |
| 2026-05-07 23:32 | 33.81236 | -95.89840 | 23061 ft | 435 kts | 226° |
| 2026-05-07 23:33 | 33.78909 | -95.92141 | 22553 ft | 433 kts | 225° |
| 2026-05-07 23:33 | 33.76588 | -95.94418 | 22049 ft | 430 kts | 225° |
| 2026-05-07 23:33 | 33.74269 | -95.96694 | 21544 ft | 427 kts | 225° |
| 2026-05-07 23:33 | 33.72008 | -95.98925 | 21052 ft | 426 kts | 225° |
| 2026-05-07 23:34 | 33.69724 | -96.01185 | 20552 ft | 424 kts | 225° |
| 2026-05-07 23:34 | 33.67451 | -96.03430 | 20056 ft | 423 kts | 225° |
| 2026-05-07 23:34 | 33.65115 | -96.05725 | 19549 ft | 421 kts | 225° |
| 2026-05-07 23:34 | 33.63616 | -96.07194 | 19222 ft | 420 kts | 224° |
| 2026-05-07 23:35 | 33.61355 | -96.09409 | 18729 ft | 418 kts | 224° |
| 2026-05-07 23:35 | 33.59110 | -96.11614 | 18239 ft | 416 kts | 224° |
| 2026-05-07 23:35 | 33.56877 | -96.13809 | 17754 ft | 415 kts | 224° |
| 2026-05-07 23:35 | 33.54647 | -96.15998 | 17267 ft | 413 kts | 224° |
| 2026-05-07 23:36 | 33.52430 | -96.18166 | 16783 ft | 409 kts | 224° |
| 2026-05-07 23:36 | 33.50233 | -96.20310 | 16303 ft | 406 kts | 224° |
| 2026-05-07 23:36 | 33.48052 | -96.22442 | 15828 ft | 404 kts | 224° |
| 2026-05-07 23:36 | 33.45883 | -96.24569 | 15357 ft | 401 kts | 224° |
| 2026-05-07 23:37 | 33.43850 | -96.26806 | 14852 ft | 392 kts | 232° |
| 2026-05-07 23:37 | 33.42150 | -96.29280 | 14437 ft | 390 kts | 235° |
| 2026-05-07 23:37 | 33.40421 | -96.31785 | 13979 ft | 389 kts | 233° |
| 2026-05-07 23:37 | 33.38616 | -96.34177 | 13529 ft | 387 kts | 231° |
| 2026-05-07 23:38 | 33.36790 | -96.36539 | 13071 ft | 384 kts | 232° |
| 2026-05-07 23:38 | 33.35033 | -96.38925 | 12623 ft | 381 kts | 233° |
| 2026-05-07 23:38 | 33.33351 | -96.41364 | 12173 ft | 376 kts | 236° |
| 2026-05-07 23:38 | 33.32143 | -96.44002 | 11717 ft | 350 kts | 250° |
| 2026-05-07 23:39 | 33.31412 | -96.46653 | 11344 ft | 323 kts | 255° |
| 2026-05-07 23:39 | 33.30788 | -96.49136 | 10936 ft | 303 kts | 254° |
| 2026-05-07 23:39 | 33.30137 | -96.51420 | 10573 ft | 286 kts | 252° |
| 2026-05-07 23:39 | 33.29487 | -96.53568 | 10244 ft | 262 kts | 252° |
| 2026-05-07 23:40 | 33.28906 | -96.55566 | 9940 ft | 250 kts | 253° |
| 2026-05-07 23:40 | 33.28612 | -96.57582 | 9627 ft | 247 kts | 268° |
| 2026-05-07 23:40 | 33.28570 | -96.59686 | 9390 ft | 258 kts | 269° |
| 2026-05-07 23:40 | 33.28497 | -96.61846 | 9099 ft | 262 kts | 268° |
| 2026-05-07 23:41 | 33.28379 | -96.64032 | 8791 ft | 265 kts | 267° |
| 2026-05-07 23:41 | 33.28260 | -96.66230 | 8481 ft | 265 kts | 268° |
| 2026-05-07 23:41 | 33.28157 | -96.68425 | 8171 ft | 265 kts | 268° |
| 2026-05-07 23:41 | 33.28062 | -96.70599 | 7865 ft | 265 kts | 268° |
| 2026-05-07 23:42 | 33.27966 | -96.72734 | 7554 ft | 264 kts | 268° |
| 2026-05-07 23:42 | 33.27862 | -96.74916 | 7250 ft | 263 kts | 268° |
| 2026-05-07 23:42 | 33.27754 | -96.77187 | 6936 ft | 262 kts | 268° |
| 2026-05-07 23:42 | 33.27657 | -96.79271 | 6656 ft | 262 kts | 268° |
| 2026-05-07 23:43 | 33.27554 | -96.81441 | 6339 ft | 261 kts | 268° |
| 2026-05-07 23:43 | 33.27431 | -96.83572 | 6024 ft | 252 kts | 264° |
| 2026-05-07 23:43 | 33.26838 | -96.85438 | 5932 ft | 231 kts | 243° |
| 2026-05-07 23:43 | 33.26098 | -96.87112 | 5988 ft | 236 kts | 244° |
| 2026-05-07 23:44 | 33.25337 | -96.89005 | 6011 ft | 268 kts | 246° |
| 2026-05-07 23:44 | 33.24530 | -96.91052 | 6017 ft | 273 kts | 245° |
| 2026-05-07 23:44 | 33.23702 | -96.93099 | 6012 ft | 274 kts | 245° |
| 2026-05-07 23:44 | 33.22863 | -96.95136 | 6012 ft | 274 kts | 245° |
| 2026-05-07 23:45 | 33.22020 | -96.97182 | 6010 ft | 275 kts | 245° |
| 2026-05-07 23:45 | 33.21168 | -96.99254 | 6013 ft | 275 kts | 245° |
| 2026-05-07 23:45 | 33.20144 | -97.01141 | 5929 ft | 276 kts | 226° |
| 2026-05-07 23:45 | 33.18497 | -97.02297 | 5800 ft | 282 kts | 201° |
| 2026-05-07 23:46 | 33.16569 | -97.02546 | 5376 ft | 276 kts | 179° |
| 2026-05-07 23:46 | 33.14640 | -97.02417 | 5036 ft | 278 kts | 178° |
| 2026-05-07 23:46 | 33.12716 | -97.02423 | 4669 ft | 277 kts | 181° |
| 2026-05-07 23:46 | 33.10785 | -97.02470 | 4299 ft | 276 kts | 181° |
| 2026-05-07 23:47 | 33.08872 | -97.02497 | 3926 ft | 273 kts | 180° |
| 2026-05-07 23:47 | 33.06974 | -97.02506 | 3555 ft | 272 kts | 180° |
| 2026-05-07 23:47 | 33.05092 | -97.02512 | 3199 ft | 269 kts | 180° |
| 2026-05-07 23:47 | 33.03227 | -97.02522 | 2844 ft | 267 kts | 180° |
| 2026-05-07 23:48 | 33.01400 | -97.02535 | 2494 ft | 266 kts | 179° |
| 2026-05-07 23:48 | 32.99608 | -97.02552 | 2140 ft | 247 kts | 179° |
| 2026-05-07 23:48 | 32.97980 | -97.02556 | 1811 ft | 216 kts | 179° |
| 2026-05-07 23:48 | 32.96641 | -97.02568 | 1538 ft | 187 kts | 179° |
| 2026-05-07 23:49 | 32.95407 | -97.02571 | 1316 ft | 164 kts | 178° |
| 2026-05-07 23:49 | 32.94315 | -97.02579 | 1113 ft | 152 kts | 179° |
| 2026-05-07 23:49 | 32.93295 | -97.02557 | 856 ft | 140 kts | 178° |
| 2026-05-07 23:49 | 32.92370 | -97.02559 | 678 ft | 126 kts | 181° |
| 2026-05-07 23:50 | 32.91546 | -97.02585 | 575 ft | 113 kts | 181° |
| 2026-05-07 23:50 | 32.90933 | -97.02594 | 568 ft | 54 kts | 181° |
| 2026-05-07 23:50 | 32.90598 | -97.02603 | 575 ft | 40 kts | 181° |
| 2026-05-07 23:50 | 32.90470 | -97.02716 | 573 ft | 18 kts | 279° |
| 2026-05-07 23:51 | 32.90468 | -97.02802 | 572 ft | 9 kts | 273° |
| 2026-05-07 23:51 | 32.90467 | -97.02870 | 571 ft | 9 kts | 269° |
| 2026-05-07 23:51 | 32.90466 | -97.02996 | 568 ft | 20 kts | 269° |
| 2026-05-07 23:51 | 32.90466 | -97.03185 | 569 ft | 24 kts | 271° |
| 2026-05-07 23:52 | 32.90499 | -97.03312 | 569 ft | 15 kts | 334° |
| 2026-05-07 23:52 | 32.90675 | -97.03316 | 569 ft | 39 kts | 359° |
| 2026-05-07 23:52 | 32.90962 | -97.03315 | 575 ft | 33 kts | 357° |
| 2026-05-07 23:52 | 32.91119 | -97.03394 | 578 ft | 19 kts | 295° |
| 2026-05-07 23:53 | 32.91082 | -97.03539 | 579 ft | 0 kts | 184° |